createdAt,value
2018-12-21T00:01:40.656Z,-1.00
2018-12-21T00:04:09.749Z,-1.00
2018-12-21T00:06:39.032Z,-1.00
2018-12-21T00:09:08.099Z,-1.00
2018-12-21T00:11:37.101Z,-1.00
2018-12-21T00:14:06.119Z,-1.00
2018-12-21T00:16:35.147Z,-1.00
2018-12-21T00:19:04.341Z,-1.00
2018-12-21T00:21:34.797Z,-1.00
2018-12-21T00:24:03.934Z,-0.90
2018-12-21T00:26:33.005Z,-0.90
2018-12-21T00:29:02.130Z,-0.90
2018-12-21T00:31:36.600Z,-0.90
2018-12-21T00:34:11.025Z,-0.90
2018-12-21T00:36:46.319Z,-0.90
2018-12-21T00:39:20.662Z,-1.00
2018-12-21T00:41:49.096Z,-1.00
2018-12-21T00:44:27.616Z,-0.90
2018-12-21T00:46:59.108Z,-1.00
2018-12-21T00:49:28.357Z,-0.90
2018-12-21T00:51:57.461Z,-0.90
2018-12-21T00:54:26.569Z,-0.90
2018-12-21T00:56:55.662Z,-0.90
2018-12-21T00:59:24.929Z,-1.00
2018-12-21T01:01:54.001Z,-0.90
2018-12-21T01:04:23.033Z,-0.90
2018-12-21T01:06:52.232Z,-0.90
2018-12-21T01:09:23.565Z,-0.90
2018-12-21T01:11:53.387Z,-0.90
2018-12-21T01:14:22.646Z,-0.90
2018-12-21T01:16:51.714Z,-0.90
2018-12-21T01:19:20.941Z,-0.90
2018-12-21T01:21:50.078Z,-0.90
2018-12-21T01:24:19.244Z,-0.90
2018-12-21T01:26:48.484Z,-0.90
2018-12-21T01:29:17.932Z,-0.90
2018-12-21T01:31:46.960Z,-0.90
2018-12-21T01:34:16.197Z,-0.80
2018-12-21T01:36:45.317Z,-0.90
2018-12-21T01:39:14.447Z,-0.80
2018-12-21T01:41:43.485Z,-0.80
2018-12-21T01:44:12.522Z,-0.80
2018-12-21T01:46:42.634Z,-0.80
2018-12-21T01:49:11.680Z,-0.80
2018-12-21T01:51:47.083Z,-0.80
2018-12-21T01:54:11.734Z,-0.80
2018-12-21T01:56:40.761Z,-0.80
2018-12-21T01:59:09.824Z,-0.80
2018-12-21T02:01:38.873Z,-0.80
2018-12-21T02:04:08.728Z,-0.80
2018-12-21T02:06:37.813Z,-0.80
2018-12-21T02:09:07.785Z,-0.80
2018-12-21T02:11:36.800Z,-0.80
2018-12-21T02:14:06.258Z,-0.70
2018-12-21T02:16:35.274Z,-0.80
2018-12-21T02:19:04.478Z,-0.70
2018-12-21T02:21:34.626Z,-0.70
2018-12-21T02:24:04.999Z,-0.80
2018-12-21T02:26:34.101Z,-0.70
2018-12-21T02:29:03.721Z,-0.70
2018-12-21T02:31:32.812Z,-0.70
2018-12-21T02:34:01.931Z,-0.60
2018-12-21T02:36:30.957Z,-0.70
2018-12-21T02:39:00.063Z,-0.70
2018-12-21T02:41:29.081Z,-0.60
2018-12-21T02:43:58.127Z,-0.60
2018-12-21T02:46:27.349Z,-0.60
2018-12-21T02:48:56.385Z,-0.60
2018-12-21T02:51:25.434Z,-0.60
2018-12-21T02:53:54.455Z,-0.60
2018-12-21T02:56:23.659Z,-0.60
2018-12-21T02:58:52.948Z,-0.60
2018-12-21T03:01:22.070Z,-0.50
2018-12-21T03:03:51.250Z,-0.50
2018-12-21T03:06:20.360Z,-0.50
2018-12-21T03:08:49.433Z,-0.50
2018-12-21T03:11:18.582Z,-0.50
2018-12-21T03:13:47.783Z,-0.50
2018-12-21T03:16:18.113Z,-0.50
2018-12-21T03:18:49.008Z,-0.50
2018-12-21T03:21:18.372Z,-0.50
2018-12-21T03:23:47.433Z,-0.40
2018-12-21T03:26:16.474Z,-0.40
2018-12-21T03:28:45.623Z,-0.40
2018-12-21T03:31:14.822Z,-0.40
2018-12-21T03:33:44.061Z,-0.40
2018-12-21T03:36:13.132Z,-0.40
2018-12-21T03:38:42.244Z,-0.40
2018-12-21T03:41:11.441Z,-0.40
2018-12-21T03:43:40.559Z,-0.30
2018-12-21T03:46:09.636Z,-0.30
2018-12-21T03:48:38.668Z,-0.30
2018-12-21T03:51:07.691Z,-0.30
2018-12-21T03:53:36.795Z,-0.30
2018-12-21T03:56:05.845Z,-0.20
2018-12-21T03:58:34.955Z,-0.10
2018-12-21T04:01:04.081Z,-0.20
2018-12-21T04:03:33.164Z,-0.20
2018-12-21T04:06:02.435Z,-0.10
2018-12-21T04:08:31.502Z,-0.20
2018-12-21T04:11:00.589Z,-0.10
2018-12-21T04:13:29.629Z,-0.10
2018-12-21T04:15:58.678Z,-0.10
2018-12-21T04:18:27.789Z,-0.10
2018-12-21T04:20:56.895Z,-0.10
2018-12-21T04:23:26.016Z,0.00
2018-12-21T04:25:55.102Z,0.00
2018-12-21T04:28:24.238Z,0.00
2018-12-21T04:30:53.298Z,0.00
2018-12-21T04:33:22.337Z,0.10
2018-12-21T04:35:51.486Z,0.10
2018-12-21T04:38:20.620Z,0.10
2018-12-21T04:40:49.727Z,0.10
2018-12-21T04:43:18.890Z,0.20
2018-12-21T04:45:47.957Z,0.20
2018-12-21T04:48:17.093Z,0.20
2018-12-21T04:50:46.265Z,0.20
2018-12-21T04:53:15.462Z,0.30
2018-12-21T04:55:44.477Z,0.30
2018-12-21T04:58:13.567Z,0.40
2018-12-21T05:00:42.558Z,0.40
2018-12-21T05:03:11.845Z,0.40
2018-12-21T05:05:40.867Z,0.50
2018-12-21T05:08:09.985Z,0.50
2018-12-21T05:10:39.120Z,0.50
2018-12-21T05:13:08.123Z,0.60
2018-12-21T05:15:37.241Z,0.60
2018-12-21T05:18:06.333Z,0.60
2018-12-21T05:20:35.449Z,0.60
2018-12-21T05:23:04.662Z,0.60
2018-12-21T05:25:33.752Z,0.60
2018-12-21T05:28:02.869Z,0.70
2018-12-21T05:30:31.898Z,0.70
2018-12-21T05:33:01.241Z,0.70
2018-12-21T05:35:30.310Z,0.70
2018-12-21T05:37:59.353Z,0.70
2018-12-21T05:40:28.413Z,0.70
2018-12-21T05:42:57.533Z,0.70
2018-12-21T05:45:26.993Z,0.80
2018-12-21T05:47:56.263Z,0.80
2018-12-21T05:50:25.344Z,0.80
2018-12-21T05:53:00.708Z,0.80
2018-12-21T05:55:25.332Z,0.80
2018-12-21T05:57:54.485Z,0.80
2018-12-21T06:00:23.504Z,0.90
2018-12-21T06:05:18.800Z,0.90
2018-12-21T06:07:47.817Z,0.90
2018-12-21T06:10:16.874Z,0.90
2018-12-21T06:12:45.892Z,0.90
2018-12-21T06:15:14.964Z,0.90
2018-12-21T06:17:44.004Z,1.00
2018-12-21T06:20:13.043Z,1.00
2018-12-21T06:22:42.129Z,1.00
2018-12-21T06:25:11.157Z,0.90
2018-12-21T06:27:40.241Z,1.00
2018-12-21T06:30:09.482Z,1.00
2018-12-21T06:32:40.103Z,1.00
2018-12-21T06:35:09.292Z,1.10
2018-12-21T06:37:38.416Z,1.00
2018-12-21T06:40:07.765Z,1.10
2018-12-21T06:42:36.923Z,1.10
2018-12-21T06:45:06.397Z,1.10
2018-12-21T06:47:35.472Z,1.10
2018-12-21T06:50:04.887Z,1.10
2018-12-21T06:52:33.958Z,1.10
2018-12-21T06:55:03.035Z,1.10
2018-12-21T06:57:32.079Z,1.10
2018-12-21T07:00:01.362Z,1.10
2018-12-21T07:02:30.592Z,1.10
2018-12-21T07:04:59.608Z,1.10
2018-12-21T07:07:28.759Z,1.10
2018-12-21T07:09:57.824Z,1.10
2018-12-21T07:12:26.959Z,1.20
2018-12-21T07:14:56.000Z,1.20
2018-12-21T07:17:25.077Z,1.20
2018-12-21T07:19:54.157Z,1.20
2018-12-21T07:22:23.303Z,1.20
2018-12-21T07:24:52.449Z,1.20
2018-12-21T07:27:21.611Z,1.20
2018-12-21T07:29:50.770Z,1.30
2018-12-21T07:32:19.940Z,1.30
2018-12-21T07:34:48.985Z,1.30
2018-12-21T07:37:18.040Z,1.30
2018-12-21T07:39:47.122Z,1.30
2018-12-21T07:42:16.381Z,1.30
2018-12-21T07:44:45.409Z,1.40
2018-12-21T07:47:14.585Z,1.50
2018-12-21T07:49:44.091Z,1.50
2018-12-21T07:52:13.161Z,1.50
2018-12-21T07:54:42.213Z,1.50
2018-12-21T07:57:11.289Z,1.50
2018-12-21T07:59:40.332Z,1.50
2018-12-21T08:02:09.402Z,1.50
2018-12-21T08:04:38.425Z,1.50
2018-12-21T08:09:33.507Z,1.60
2018-12-21T08:12:02.518Z,1.60
2018-12-21T08:14:31.627Z,1.70
2018-12-21T08:17:00.700Z,1.70
2018-12-21T08:19:32.080Z,1.70
2018-12-21T08:22:00.917Z,1.70
2018-12-21T08:24:30.054Z,1.60
2018-12-21T08:26:59.758Z,1.70
2018-12-21T08:29:33.031Z,1.70
2018-12-21T08:32:02.378Z,1.70
2018-12-21T08:34:31.555Z,1.70
2018-12-21T08:37:00.784Z,1.70
2018-12-21T08:39:29.873Z,1.80
2018-12-21T08:41:58.900Z,1.90
2018-12-21T08:44:29.003Z,2.00
2018-12-21T08:46:58.065Z,2.00
2018-12-21T08:49:27.321Z,2.00
2018-12-21T08:51:56.452Z,2.00
2018-12-21T08:54:25.517Z,2.10
2018-12-21T08:56:54.812Z,2.10
2018-12-21T08:59:23.837Z,2.20
2018-12-21T09:01:52.943Z,2.10
2018-12-21T09:04:22.056Z,2.20
2018-12-21T09:06:51.185Z,2.20
2018-12-21T09:09:20.221Z,2.20
2018-12-21T09:11:49.260Z,2.20
2018-12-21T09:14:18.277Z,2.20
2018-12-21T09:16:47.433Z,2.20
2018-12-21T09:19:16.452Z,2.20
2018-12-21T09:21:45.520Z,2.20
2018-12-21T09:24:14.508Z,2.20
2018-12-21T09:26:43.606Z,2.20
2018-12-21T09:29:13.382Z,2.20
2018-12-21T09:31:42.637Z,2.30
2018-12-21T09:34:11.868Z,2.30
2018-12-21T09:36:42.938Z,2.30
2018-12-21T09:39:12.239Z,2.30
2018-12-21T09:41:41.407Z,2.30
2018-12-21T09:44:10.494Z,2.40
2018-12-21T09:46:39.604Z,2.40
2018-12-21T09:49:08.774Z,2.50
2018-12-21T09:51:39.027Z,2.50
2018-12-21T09:54:09.963Z,2.50
2018-12-21T09:56:39.213Z,2.60
2018-12-21T09:59:08.218Z,2.60
2018-12-21T10:01:37.240Z,2.70
2018-12-21T10:04:06.324Z,2.80
2018-12-21T10:06:35.610Z,2.80
2018-12-21T10:09:06.524Z,2.90
2018-12-21T10:11:35.777Z,3.00
2018-12-21T10:14:04.919Z,3.10
2018-12-21T10:16:33.938Z,3.10
2018-12-21T10:19:02.961Z,3.20
2018-12-21T10:21:32.072Z,3.20
2018-12-21T10:24:01.244Z,3.30
2018-12-21T10:26:30.418Z,3.40
2018-12-21T10:28:59.490Z,3.50
2018-12-21T10:31:28.513Z,3.50
2018-12-21T10:33:57.583Z,3.50
2018-12-21T10:36:26.780Z,3.40
2018-12-21T10:38:55.924Z,3.40
2018-12-21T10:41:25.092Z,3.20
2018-12-21T10:43:54.200Z,3.20
2018-12-21T10:46:23.261Z,3.10
2018-12-21T10:48:52.355Z,3.00
2018-12-21T10:51:21.542Z,3.00
2018-12-21T10:53:50.784Z,3.00
2018-12-21T10:56:19.923Z,3.00
2018-12-21T10:58:49.949Z,3.10
2018-12-21T11:01:19.104Z,3.10
2018-12-21T11:03:48.200Z,3.10
2018-12-21T11:06:17.390Z,3.10
2018-12-21T11:08:46.645Z,3.10
2018-12-21T11:11:15.716Z,3.10
2018-12-21T11:13:44.858Z,3.10
2018-12-21T11:16:14.071Z,3.10
2018-12-21T11:18:43.258Z,3.10
2018-12-21T11:21:12.334Z,3.10
2018-12-21T11:23:41.502Z,3.10
2018-12-21T11:26:10.668Z,3.00
2018-12-21T11:28:39.855Z,3.10
2018-12-21T11:31:08.957Z,3.10
2018-12-21T11:33:38.040Z,3.10
2018-12-21T11:36:07.202Z,3.10
2018-12-21T11:38:36.511Z,3.10
2018-12-21T11:41:05.824Z,3.00
2018-12-21T11:43:35.352Z,3.10
2018-12-21T11:46:04.627Z,3.10
2018-12-21T11:48:33.816Z,3.00
2018-12-21T11:51:02.988Z,3.00
2018-12-21T11:53:32.018Z,3.10
2018-12-21T11:56:01.123Z,3.10
2018-12-21T11:58:30.273Z,3.10
2018-12-21T12:00:59.544Z,3.10
2018-12-21T12:03:29.672Z,3.00
2018-12-21T12:05:58.824Z,3.00
2018-12-21T12:08:27.929Z,3.00
2018-12-21T12:10:57.013Z,3.00
2018-12-21T12:13:26.223Z,3.00
2018-12-21T12:15:55.237Z,3.00
2018-12-21T12:18:24.354Z,3.00
2018-12-21T12:20:53.400Z,3.00
2018-12-21T12:23:22.518Z,2.90
2018-12-21T12:25:51.545Z,2.90
2018-12-21T12:28:20.629Z,2.90
2018-12-21T12:30:49.737Z,2.90
2018-12-21T12:33:18.922Z,2.90
2018-12-21T12:35:47.947Z,2.90
2018-12-21T12:38:17.013Z,2.90
2018-12-21T12:40:46.106Z,2.80
2018-12-21T12:43:15.224Z,2.80
2018-12-21T12:45:44.353Z,2.80
2018-12-21T12:48:13.457Z,2.80
2018-12-21T12:50:42.590Z,2.80
2018-12-21T12:53:11.820Z,2.70
2018-12-21T12:55:40.846Z,2.70
2018-12-21T12:58:09.945Z,2.70
2018-12-21T13:00:39.266Z,2.70
2018-12-21T13:03:08.302Z,2.70
2018-12-21T13:05:37.520Z,2.60
2018-12-21T13:08:06.616Z,2.60
2018-12-21T13:10:35.720Z,2.60
2018-12-21T13:13:04.981Z,2.60
2018-12-21T13:15:35.015Z,2.50
2018-12-21T13:18:04.350Z,2.50
2018-12-21T13:20:33.472Z,2.50
2018-12-21T13:23:02.634Z,2.50
2018-12-21T13:25:31.909Z,2.60
2018-12-21T13:28:01.032Z,2.50
2018-12-21T13:30:30.250Z,2.50
2018-12-21T13:32:59.415Z,2.50
2018-12-21T13:35:28.480Z,2.50
2018-12-21T13:37:57.510Z,2.60
2018-12-21T13:40:26.541Z,2.50
2018-12-21T13:42:55.588Z,2.60
2018-12-21T13:45:24.626Z,2.60
2018-12-21T13:47:53.728Z,2.60
2018-12-21T13:50:22.785Z,2.60
2018-12-21T13:52:51.929Z,2.60
2018-12-21T13:55:21.125Z,2.60
2018-12-21T13:57:50.256Z,2.50
2018-12-21T14:00:19.383Z,2.50
2018-12-21T14:02:48.546Z,2.50
2018-12-21T14:05:17.657Z,2.50
2018-12-21T14:07:47.070Z,2.50
2018-12-21T14:10:16.387Z,2.50
2018-12-21T14:12:45.506Z,2.40
2018-12-21T14:15:14.623Z,2.30
2018-12-21T14:17:43.679Z,2.30
2018-12-21T14:20:13.305Z,2.30
2018-12-21T14:22:42.508Z,2.20
2018-12-21T14:25:11.582Z,2.20
2018-12-21T14:27:40.632Z,2.20
2018-12-21T14:30:10.394Z,2.20
2018-12-21T14:32:39.542Z,2.20
2018-12-21T14:35:08.761Z,2.20
2018-12-21T14:37:38.024Z,2.10
2018-12-21T14:40:07.408Z,2.10
2018-12-21T14:42:36.561Z,2.10
2018-12-21T14:45:06.339Z,2.10
2018-12-21T14:47:35.504Z,2.10
2018-12-21T14:50:05.457Z,2.10
2018-12-21T14:52:34.581Z,2.10
2018-12-21T14:55:03.938Z,2.10
2018-12-21T14:57:33.070Z,2.10
2018-12-21T15:00:02.175Z,2.10
2018-12-21T15:02:31.335Z,2.10
2018-12-21T15:05:00.401Z,2.10
2018-12-21T15:07:29.653Z,2.00
2018-12-21T15:09:58.842Z,2.00
2018-12-21T15:12:27.969Z,2.00
2018-12-21T15:14:57.065Z,1.90
2018-12-21T15:17:26.148Z,2.00
2018-12-21T15:19:55.300Z,2.00
2018-12-21T15:22:24.448Z,2.00
2018-12-21T15:24:53.514Z,1.90
2018-12-21T15:27:22.713Z,1.90
2018-12-21T15:29:51.757Z,2.00
2018-12-21T15:32:20.934Z,1.90
2018-12-21T15:34:50.109Z,1.90
2018-12-21T15:37:19.164Z,2.00
2018-12-21T15:39:48.230Z,2.00
2018-12-21T15:42:17.373Z,2.00
2018-12-21T15:44:46.576Z,2.00
2018-12-21T15:47:15.617Z,2.00
2018-12-21T15:49:44.685Z,2.10
2018-12-21T15:52:13.744Z,2.10
2018-12-21T15:54:42.922Z,2.10
2018-12-21T15:57:11.917Z,2.10
2018-12-21T15:59:40.977Z,2.10
2018-12-21T16:02:10.057Z,2.10
2018-12-21T16:04:39.178Z,2.10
2018-12-21T16:07:08.220Z,2.10
2018-12-21T16:09:37.305Z,2.10
2018-12-21T16:12:06.433Z,2.10
2018-12-21T16:14:36.691Z,2.10
2018-12-21T16:17:06.053Z,2.10
2018-12-21T16:19:35.214Z,2.10
2018-12-21T16:22:04.236Z,2.10
2018-12-21T16:24:33.414Z,2.10
2018-12-21T16:27:02.482Z,2.20
2018-12-21T16:29:31.517Z,2.20
2018-12-21T16:32:00.537Z,2.20
2018-12-21T16:34:29.676Z,2.20
2018-12-21T16:36:58.718Z,2.20
2018-12-21T16:39:27.761Z,2.20
2018-12-21T16:41:56.800Z,2.20
2018-12-21T16:44:26.015Z,2.20
2018-12-21T16:46:55.107Z,2.30
2018-12-21T16:49:24.266Z,2.30
2018-12-21T16:51:53.307Z,2.30
2018-12-21T16:54:22.381Z,2.30
2018-12-21T16:56:51.463Z,2.30
2018-12-21T16:59:20.537Z,2.40
2018-12-21T17:01:49.852Z,2.40
2018-12-21T17:04:18.920Z,2.40
2018-12-21T17:06:48.037Z,2.50
2018-12-21T17:09:17.109Z,2.50
2018-12-21T17:11:46.204Z,2.50
2018-12-21T17:14:15.248Z,2.60
2018-12-21T17:16:44.289Z,2.60
2018-12-21T17:19:17.185Z,2.60
2018-12-21T17:21:46.281Z,2.70
2018-12-21T17:24:15.309Z,2.70
2018-12-21T17:26:46.389Z,2.70
2018-12-21T17:29:15.389Z,2.70
2018-12-21T17:31:44.398Z,2.70
2018-12-21T17:34:13.441Z,2.70
2018-12-21T17:36:42.552Z,2.70
2018-12-21T17:39:11.697Z,2.70
2018-12-21T17:41:40.791Z,2.70
2018-12-21T17:44:09.881Z,2.70
2018-12-21T17:46:39.036Z,2.70
2018-12-21T17:49:08.119Z,2.70
2018-12-21T17:51:38.516Z,2.70
2018-12-21T17:54:07.737Z,2.70
2018-12-21T17:56:36.835Z,2.70
2018-12-21T17:59:05.901Z,2.80
2018-12-21T18:01:36.218Z,2.70
2018-12-21T18:04:12.838Z,2.80
2018-12-21T18:06:41.913Z,2.80
2018-12-21T18:09:12.077Z,2.80
2018-12-21T18:11:41.183Z,2.80
2018-12-21T18:14:10.208Z,2.80
2018-12-21T18:16:39.596Z,2.70
2018-12-21T18:19:08.721Z,2.80
2018-12-21T18:21:45.608Z,2.80
2018-12-21T18:24:16.514Z,2.80
2018-12-21T18:26:45.705Z,2.70
2018-12-21T18:29:14.884Z,2.70
2018-12-21T18:32:52.369Z,2.70
2018-12-21T18:35:21.553Z,2.70
2018-12-21T18:37:54.044Z,2.70
2018-12-21T18:40:23.203Z,2.70
2018-12-21T18:42:52.342Z,2.70
2018-12-21T18:45:21.573Z,2.70
2018-12-21T18:47:50.620Z,2.60
2018-12-21T18:50:19.714Z,2.60
2018-12-21T18:52:48.914Z,2.60
2018-12-21T18:55:18.165Z,2.50
2018-12-21T18:57:47.215Z,2.50
2018-12-21T19:00:17.558Z,2.50
2018-12-21T19:02:46.803Z,2.50
2018-12-21T19:05:16.857Z,2.50
2018-12-21T19:07:45.936Z,2.50
2018-12-21T19:10:15.418Z,2.50
2018-12-21T19:12:44.414Z,2.50
2018-12-21T19:15:13.615Z,2.50
2018-12-21T19:17:42.687Z,2.50
2018-12-21T19:20:12.458Z,2.50
2018-12-21T19:22:41.698Z,2.50
2018-12-21T19:25:11.642Z,2.50
2018-12-21T19:27:40.946Z,2.50
2018-12-21T19:30:11.879Z,2.50
2018-12-21T19:32:42.381Z,2.50
2018-12-21T19:35:13.885Z,2.40
2018-12-21T19:37:43.091Z,2.50
2018-12-21T19:40:12.766Z,2.40
2018-12-21T19:42:42.137Z,2.40
2018-12-21T19:45:13.560Z,2.40
2018-12-21T19:47:43.619Z,2.40
2018-12-21T19:50:12.780Z,2.40
2018-12-21T19:52:41.964Z,2.40
2018-12-21T19:55:25.950Z,2.40
2018-12-21T19:57:55.117Z,2.40
2018-12-21T20:00:24.406Z,2.30
2018-12-21T20:02:53.444Z,2.30
2018-12-21T20:05:22.514Z,2.40
2018-12-21T20:07:51.793Z,2.30
2018-12-21T20:10:20.818Z,2.30
2018-12-21T20:12:49.933Z,2.30
2018-12-21T20:15:19.011Z,2.30
2018-12-21T20:17:48.133Z,2.40
2018-12-21T20:20:17.404Z,2.40
2018-12-21T20:22:46.648Z,2.50
2018-12-21T20:25:15.863Z,2.40
2018-12-21T20:27:45.285Z,2.50
2018-12-21T20:30:17.305Z,2.50
2018-12-21T20:32:46.736Z,2.50
2018-12-21T20:35:15.879Z,2.50
2018-12-21T20:37:45.174Z,2.50
2018-12-21T20:40:15.980Z,2.50
2018-12-21T20:42:46.280Z,2.50
2018-12-21T20:45:17.321Z,2.40
2018-12-21T20:47:46.746Z,2.40
2018-12-21T20:50:16.984Z,2.40
2018-12-21T20:52:46.264Z,2.40
2018-12-21T20:55:15.943Z,2.50
2018-12-21T20:57:48.087Z,2.50
2018-12-21T21:00:17.228Z,2.50
2018-12-21T21:02:46.651Z,2.50
2018-12-21T21:05:15.709Z,2.50
2018-12-21T21:07:44.792Z,2.50
2018-12-21T21:10:14.038Z,2.50
2018-12-21T21:12:44.458Z,2.50
2018-12-21T21:15:13.916Z,2.50
2018-12-21T21:17:43.285Z,2.50
2018-12-21T21:20:14.444Z,2.50
2018-12-21T21:22:43.777Z,2.50
2018-12-21T21:25:13.007Z,2.50
2018-12-21T21:27:42.265Z,2.50
2018-12-21T21:30:14.551Z,2.50
2018-12-21T21:32:43.717Z,2.50
2018-12-21T21:35:13.118Z,2.50
2018-12-21T21:37:42.261Z,2.50
2018-12-21T21:40:15.068Z,2.50
2018-12-21T21:42:44.357Z,2.40
2018-12-21T21:45:13.380Z,2.40
2018-12-21T21:47:42.450Z,2.50
2018-12-21T21:50:11.961Z,2.40
2018-12-21T21:52:41.167Z,2.40
2018-12-21T21:55:10.376Z,2.40
2018-12-21T21:57:40.374Z,2.40
2018-12-21T22:00:12.269Z,2.40
2018-12-21T22:02:41.633Z,2.30
2018-12-21T22:05:10.841Z,2.30
2018-12-21T22:07:39.896Z,2.30
2018-12-21T22:10:10.645Z,2.30
2018-12-21T22:12:39.804Z,2.30
2018-12-21T22:15:10.285Z,2.30
2018-12-21T22:17:39.505Z,2.30
2018-12-21T22:20:10.629Z,2.30
2018-12-21T22:22:39.767Z,2.30
2018-12-21T22:25:08.865Z,2.30
2018-12-21T22:27:37.929Z,2.30
2018-12-21T22:30:09.917Z,2.30
2018-12-21T22:32:39.379Z,2.30
2018-12-21T22:35:08.694Z,2.20
2018-12-21T22:37:37.797Z,2.20
2018-12-21T22:40:07.685Z,2.20
2018-12-21T22:42:36.762Z,2.20
2018-12-21T22:45:07.457Z,2.10
2018-12-21T22:47:36.651Z,2.10
2018-12-21T22:50:07.607Z,2.10
2018-12-21T22:52:37.338Z,2.10
2018-12-21T22:55:07.897Z,2.10
2018-12-21T22:57:36.932Z,2.10
2018-12-21T23:00:12.318Z,2.10
2018-12-21T23:02:42.574Z,2.10
2018-12-21T23:05:11.848Z,2.00
2018-12-21T23:07:40.955Z,2.00
2018-12-21T23:10:10.089Z,2.00
2018-12-21T23:12:39.308Z,2.00
2018-12-21T23:15:08.442Z,1.90
2018-12-21T23:17:37.494Z,1.90
2018-12-21T23:20:07.125Z,1.90
2018-12-21T23:22:36.335Z,1.90
2018-12-21T23:25:06.461Z,1.90
2018-12-21T23:27:35.552Z,1.90
2018-12-21T23:30:05.705Z,1.90
2018-12-21T23:32:34.900Z,1.90
2018-12-21T23:35:04.723Z,1.90
2018-12-21T23:37:33.789Z,1.90
2018-12-21T23:40:02.885Z,1.90
2018-12-21T23:42:31.887Z,1.80
2018-12-21T23:45:01.024Z,1.80
2018-12-21T23:47:30.044Z,1.80
2018-12-21T23:49:59.135Z,1.70
2018-12-21T23:52:28.310Z,1.70
2018-12-21T23:54:57.390Z,1.60
2018-12-21T23:57:26.424Z,1.60
2018-12-21T23:59:55.585Z,1.60
